createdAt,value
2022-08-03T00:00:11.799Z,985.32
2022-08-03T00:01:11.796Z,985.31
2022-08-03T00:02:11.793Z,985.32
2022-08-03T00:03:11.809Z,985.32
2022-08-03T00:04:11.771Z,985.31
2022-08-03T00:05:11.754Z,985.31
2022-08-03T00:06:11.748Z,985.31
2022-08-03T00:07:11.774Z,985.30
2022-08-03T00:08:11.736Z,985.29
2022-08-03T00:09:11.738Z,985.29
2022-08-03T00:10:11.726Z,985.28
2022-08-03T00:11:11.716Z,985.28
2022-08-03T00:12:11.701Z,985.27
2022-08-03T00:13:11.719Z,985.27
2022-08-03T00:14:11.691Z,985.28
2022-08-03T00:15:16.491Z,985.27
2022-08-03T00:16:12.679Z,985.26
2022-08-03T00:17:11.674Z,985.26
2022-08-03T00:18:11.665Z,985.26
2022-08-03T00:19:11.678Z,985.26
2022-08-03T00:20:11.663Z,985.26
2022-08-03T00:21:11.646Z,985.26
2022-08-03T00:22:11.632Z,985.26
2022-08-03T00:23:11.630Z,985.25
2022-08-03T00:24:11.621Z,985.24
2022-08-03T00:25:11.632Z,985.23
2022-08-03T00:26:11.610Z,985.24
2022-08-03T00:27:11.612Z,985.24
2022-08-03T00:28:12.597Z,985.25
2022-08-03T00:29:11.607Z,985.25
2022-08-03T00:30:11.614Z,985.26
2022-08-03T00:31:13.445Z,985.27
2022-08-03T00:32:11.615Z,985.27
2022-08-03T00:33:11.556Z,985.28
2022-08-03T00:34:11.565Z,985.29
2022-08-03T00:35:18.275Z,985.29
2022-08-03T00:36:12.538Z,985.30
2022-08-03T00:37:11.534Z,985.29
2022-08-03T00:38:11.542Z,985.29
2022-08-03T00:39:11.515Z,985.29
2022-08-03T00:40:11.505Z,985.29
2022-08-03T00:41:11.494Z,985.30
2022-08-03T00:42:11.492Z,985.29
2022-08-03T00:43:11.488Z,985.29
2022-08-03T00:44:11.496Z,985.29
2022-08-03T00:45:11.473Z,985.29
2022-08-03T00:46:11.477Z,985.28
2022-08-03T00:47:11.459Z,985.26
2022-08-03T00:48:32.185Z,985.24
2022-08-03T00:49:12.509Z,985.23
2022-08-03T00:50:11.425Z,985.22
2022-08-03T00:51:11.422Z,985.21
2022-08-03T00:52:11.421Z,985.21
2022-08-03T00:53:11.445Z,985.22
2022-08-03T00:54:11.403Z,985.23
2022-08-03T00:55:11.394Z,985.24
2022-08-03T00:56:11.423Z,985.27
2022-08-03T00:57:11.391Z,985.28
2022-08-03T00:58:11.378Z,985.28
2022-08-03T00:59:11.390Z,985.28
2022-08-03T01:00:11.360Z,985.28
2022-08-03T01:01:11.439Z,985.27
2022-08-03T01:02:11.343Z,985.26
2022-08-03T01:03:11.347Z,985.26
2022-08-03T01:04:11.358Z,985.25
2022-08-03T01:05:11.327Z,985.25
2022-08-03T01:06:11.310Z,985.25
2022-08-03T01:07:11.328Z,985.25
2022-08-03T01:08:11.299Z,985.26
2022-08-03T01:09:11.297Z,985.26
2022-08-03T01:10:11.311Z,985.25
2022-08-03T01:11:11.289Z,985.25
2022-08-03T01:12:11.271Z,985.25
2022-08-03T01:14:00.961Z,985.24
2022-08-03T01:14:18.745Z,985.23
2022-08-03T01:15:12.276Z,985.22
2022-08-03T01:16:11.268Z,985.21
2022-08-03T01:17:11.262Z,985.20
2022-08-03T01:18:11.238Z,985.19
2022-08-03T01:19:11.229Z,985.19
2022-08-03T01:20:11.218Z,985.18
2022-08-03T01:21:11.226Z,985.18
2022-08-03T01:22:11.206Z,985.18
2022-08-03T01:23:11.196Z,985.18
2022-08-03T01:24:11.186Z,985.19
2022-08-03T01:25:11.185Z,985.20
2022-08-03T01:26:11.187Z,985.20
2022-08-03T01:27:11.193Z,985.20
2022-08-03T01:28:11.385Z,985.18
2022-08-03T01:29:11.154Z,985.17
2022-08-03T01:30:11.165Z,985.16
2022-08-03T01:31:11.161Z,985.16
2022-08-03T01:32:59.859Z,985.16
2022-08-03T01:33:12.121Z,985.16
2022-08-03T01:34:12.219Z,985.15
2022-08-03T01:35:11.110Z,985.15
2022-08-03T01:36:11.127Z,985.17
2022-08-03T01:37:11.098Z,985.19
2022-08-03T01:38:11.089Z,985.20
2022-08-03T01:39:11.084Z,985.20
2022-08-03T01:40:11.075Z,985.20
2022-08-03T01:41:11.096Z,985.19
2022-08-03T01:42:11.072Z,985.19
2022-08-03T01:43:11.049Z,985.20
2022-08-03T01:44:29.713Z,985.21
2022-08-03T01:45:12.050Z,985.21
2022-08-03T01:46:11.021Z,985.20
2022-08-03T01:47:11.042Z,985.20
2022-08-03T01:48:11.018Z,985.21
2022-08-03T01:49:11.055Z,985.21
2022-08-03T01:50:11.008Z,985.19
2022-08-03T01:51:10.993Z,985.18
2022-08-03T01:52:11.011Z,985.17
2022-08-03T01:53:10.985Z,985.17
2022-08-03T01:54:10.999Z,985.16
2022-08-03T01:55:10.976Z,985.17
2022-08-03T01:56:10.966Z,985.17
2022-08-03T01:57:10.983Z,985.18
2022-08-03T01:58:10.948Z,985.18
2022-08-03T01:59:10.963Z,985.19
2022-08-03T02:00:10.968Z,985.19
2022-08-03T02:01:10.995Z,985.19
2022-08-03T02:02:31.937Z,985.19
2022-08-03T02:03:11.923Z,985.20
2022-08-03T02:04:10.907Z,985.20
2022-08-03T02:05:11.381Z,985.18
2022-08-03T02:07:00.215Z,985.17
2022-08-03T02:07:11.893Z,985.17
2022-08-03T02:08:10.887Z,985.17
2022-08-03T02:09:10.886Z,985.18
2022-08-03T02:10:10.886Z,985.18
2022-08-03T02:11:10.867Z,985.17
2022-08-03T02:12:10.858Z,985.16
2022-08-03T02:13:10.845Z,985.16
2022-08-03T02:14:10.834Z,985.16
2022-08-03T02:15:10.852Z,985.16
2022-08-03T02:16:10.814Z,985.15
2022-08-03T02:17:10.819Z,985.16
2022-08-03T02:18:10.818Z,985.16
2022-08-03T02:19:10.801Z,985.15
2022-08-03T02:20:10.794Z,985.16
2022-08-03T02:21:11.151Z,985.16
2022-08-03T02:22:10.807Z,985.15
2022-08-03T02:23:10.783Z,985.15
2022-08-03T02:24:10.775Z,985.14
2022-08-03T02:25:10.768Z,985.13
2022-08-03T02:26:10.776Z,985.12
2022-08-03T02:27:10.775Z,985.12
2022-08-03T02:28:10.739Z,985.12
2022-08-03T02:29:10.733Z,985.11
2022-08-03T02:30:10.726Z,985.11
2022-08-03T02:31:10.742Z,985.10
2022-08-03T02:32:10.718Z,985.10
2022-08-03T02:33:10.713Z,985.10
2022-08-03T02:34:10.713Z,985.09
2022-08-03T02:35:10.690Z,985.09
2022-08-03T02:36:10.689Z,985.09
2022-08-03T02:37:10.707Z,985.09
2022-08-03T02:38:10.674Z,985.09
2022-08-03T02:39:10.690Z,985.08
2022-08-03T02:40:10.676Z,985.07
2022-08-03T02:41:10.680Z,985.07
2022-08-03T02:42:12.036Z,985.06
2022-08-03T02:43:10.634Z,985.06
2022-08-03T02:44:10.630Z,985.05
2022-08-03T02:45:10.704Z,985.04
2022-08-03T02:46:10.619Z,985.04
2022-08-03T02:47:10.638Z,985.04
2022-08-03T02:48:10.618Z,985.03
2022-08-03T02:49:40.729Z,985.02
2022-08-03T02:50:11.670Z,985.01
2022-08-03T02:51:10.580Z,985.01
2022-08-03T02:52:12.574Z,985.00
2022-08-03T02:53:10.582Z,985.00
2022-08-03T02:54:10.564Z,984.99
2022-08-03T02:55:10.550Z,984.99
2022-08-03T02:56:10.538Z,984.99
2022-08-03T02:57:10.529Z,984.99
2022-08-03T02:58:10.549Z,984.99
2022-08-03T02:59:10.543Z,984.99
2022-08-03T03:00:10.513Z,984.99
2022-08-03T03:01:10.583Z,984.98
2022-08-03T03:02:10.530Z,984.98
2022-08-03T03:03:10.510Z,984.98
2022-08-03T03:04:10.488Z,984.97
2022-08-03T03:05:55.137Z,984.96
2022-08-03T03:06:11.471Z,984.96
2022-08-03T03:07:10.471Z,984.95
2022-08-03T03:08:17.634Z,984.94
2022-08-03T03:09:10.457Z,984.93
2022-08-03T03:10:10.436Z,984.93
2022-08-03T03:11:10.472Z,984.92
2022-08-03T03:12:10.434Z,984.93
2022-08-03T03:13:10.420Z,984.94
2022-08-03T03:14:10.416Z,984.96
2022-08-03T03:15:10.411Z,984.97
2022-08-03T03:16:10.395Z,984.99
2022-08-03T03:17:10.413Z,984.99
2022-08-03T03:18:10.381Z,984.97
2022-08-03T03:19:10.383Z,984.96
2022-08-03T03:20:10.370Z,984.94
2022-08-03T03:21:10.366Z,984.93
2022-08-03T03:22:10.416Z,984.91
2022-08-03T03:23:10.353Z,984.91
2022-08-03T03:24:10.341Z,984.92
2022-08-03T03:25:10.345Z,984.93
2022-08-03T03:26:10.328Z,984.93
2022-08-03T03:27:10.329Z,984.94
2022-08-03T03:28:10.338Z,984.95
2022-08-03T03:29:10.303Z,984.95
2022-08-03T03:30:10.293Z,984.96
2022-08-03T03:31:10.297Z,984.96
2022-08-03T03:32:10.302Z,984.96
2022-08-03T03:33:10.283Z,984.96
2022-08-03T03:34:10.288Z,984.98
2022-08-03T03:35:10.258Z,984.99
2022-08-03T03:36:10.255Z,984.99
2022-08-03T03:37:10.252Z,984.99
2022-08-03T03:38:10.248Z,984.99
2022-08-03T03:39:15.150Z,985.00
2022-08-03T03:40:11.223Z,985.01
2022-08-03T03:41:10.226Z,985.01
2022-08-03T03:42:10.224Z,985.01
2022-08-03T03:43:10.209Z,985.01
2022-08-03T03:44:10.202Z,985.00
2022-08-03T03:45:10.211Z,985.00
2022-08-03T03:46:10.191Z,985.00
2022-08-03T03:47:10.177Z,985.00
2022-08-03T03:48:10.174Z,985.00
2022-08-03T03:49:10.246Z,985.01
2022-08-03T03:50:10.149Z,985.02
2022-08-03T03:51:10.142Z,985.03
2022-08-03T03:52:10.143Z,985.03
2022-08-03T03:53:10.132Z,985.02
2022-08-03T03:54:10.122Z,985.01
2022-08-03T03:55:10.126Z,985.00
2022-08-03T03:56:10.098Z,984.99
2022-08-03T03:57:10.095Z,984.99
2022-08-03T03:58:10.093Z,984.99
2022-08-03T03:59:10.100Z,985.01
2022-08-03T04:00:10.079Z,985.02
2022-08-03T04:01:10.124Z,985.02
2022-08-03T04:02:10.120Z,985.03
2022-08-03T04:03:10.057Z,985.03
2022-08-03T04:04:10.058Z,985.03
2022-08-03T04:05:10.038Z,985.02
2022-08-03T04:06:10.037Z,985.02
2022-08-03T04:07:10.031Z,985.01
2022-08-03T04:08:10.037Z,985.02
2022-08-03T04:09:10.005Z,985.02
2022-08-03T04:10:14.703Z,985.02
2022-08-03T04:11:09.984Z,985.03
2022-08-03T04:12:10.068Z,985.03
2022-08-03T04:13:09.964Z,985.03
2022-08-03T04:14:09.995Z,985.03
2022-08-03T04:15:09.953Z,985.03
2022-08-03T04:16:09.948Z,985.03
2022-08-03T04:17:09.958Z,985.03
2022-08-03T04:18:09.941Z,985.04
2022-08-03T04:19:09.931Z,985.04
2022-08-03T04:20:09.919Z,985.05
2022-08-03T04:21:09.908Z,985.07
2022-08-03T04:22:09.972Z,985.08
2022-08-03T04:23:15.725Z,985.09
2022-08-03T04:24:10.879Z,985.09
2022-08-03T04:25:09.886Z,985.10
2022-08-03T04:26:09.902Z,985.10
2022-08-03T04:27:09.861Z,985.10
2022-08-03T04:28:29.777Z,985.10
2022-08-03T04:29:10.847Z,985.10
2022-08-03T04:30:09.835Z,985.10
2022-08-03T04:31:09.842Z,985.10
2022-08-03T04:32:09.907Z,985.10
2022-08-03T04:33:09.818Z,985.10
2022-08-03T04:34:09.834Z,985.11
2022-08-03T04:35:09.829Z,985.11
2022-08-03T04:36:09.792Z,985.12
2022-08-03T04:37:09.789Z,985.14
2022-08-03T04:38:09.779Z,985.15
2022-08-03T04:39:09.771Z,985.16
2022-08-03T04:40:09.756Z,985.17
2022-08-03T04:41:09.775Z,985.17
2022-08-03T04:42:09.751Z,985.17
2022-08-03T04:43:09.750Z,985.17
2022-08-03T04:44:09.735Z,985.16
2022-08-03T04:45:09.727Z,985.16
2022-08-03T04:46:09.715Z,985.16
2022-08-03T04:47:09.739Z,985.16
2022-08-03T04:48:09.703Z,985.17
2022-08-03T04:49:09.723Z,985.18
2022-08-03T04:50:12.917Z,985.18
2022-08-03T04:51:09.683Z,985.19
2022-08-03T04:52:09.739Z,985.20
2022-08-03T04:53:09.683Z,985.20
2022-08-03T04:54:09.661Z,985.20
2022-08-03T04:55:09.654Z,985.21
2022-08-03T04:56:09.644Z,985.21
2022-08-03T04:57:09.756Z,985.21
2022-08-03T04:58:09.627Z,985.22
2022-08-03T04:59:09.645Z,985.23
2022-08-03T05:00:09.622Z,985.24
2022-08-03T05:01:09.607Z,985.26
2022-08-03T05:02:09.779Z,985.26
2022-08-03T05:03:20.347Z,985.27
2022-08-03T05:04:10.609Z,985.27
2022-08-03T05:05:09.584Z,985.26
2022-08-03T05:06:11.400Z,985.25
2022-08-03T05:07:12.303Z,985.25
2022-08-03T05:08:11.185Z,985.26
2022-08-03T05:09:09.584Z,985.26
2022-08-03T05:10:15.911Z,985.27
2022-08-03T05:11:10.547Z,985.28
2022-08-03T05:12:09.593Z,985.28
2022-08-03T05:13:09.533Z,985.27
2022-08-03T05:14:09.521Z,985.26
2022-08-03T05:15:09.534Z,985.26
2022-08-03T05:16:09.511Z,985.27
2022-08-03T05:17:09.509Z,985.27
2022-08-03T05:18:13.666Z,985.27
2022-08-03T05:19:09.505Z,985.27
2022-08-03T05:20:09.487Z,985.26
2022-08-03T05:21:09.493Z,985.25
2022-08-03T05:22:09.540Z,985.24
2022-08-03T05:23:09.466Z,985.23
2022-08-03T05:24:09.452Z,985.22
2022-08-03T05:25:09.458Z,985.21
2022-08-03T05:26:10.501Z,985.21
2022-08-03T05:27:09.454Z,985.20
2022-08-03T05:28:09.431Z,985.20
2022-08-03T05:29:09.429Z,985.21
2022-08-03T05:30:30.885Z,985.20
2022-08-03T05:31:10.433Z,985.20
2022-08-03T05:32:09.447Z,985.20
2022-08-03T05:33:09.401Z,985.21
2022-08-03T05:34:09.395Z,985.22
2022-08-03T05:36:00.849Z,985.22
2022-08-03T05:36:10.380Z,985.22
2022-08-03T05:37:09.396Z,985.22
2022-08-03T05:38:09.370Z,985.22
2022-08-03T05:39:09.363Z,985.21
2022-08-03T05:40:09.346Z,985.21
2022-08-03T05:41:22.442Z,985.21
2022-08-03T05:42:09.393Z,985.21
2022-08-03T05:43:09.348Z,985.21
2022-08-03T05:44:09.356Z,985.22
2022-08-03T05:45:09.320Z,985.23
2022-08-03T05:46:13.049Z,985.24
2022-08-03T05:47:09.305Z,985.25
2022-08-03T05:48:09.300Z,985.26
2022-08-03T05:49:09.363Z,985.26
2022-08-03T05:50:09.283Z,985.26
2022-08-03T05:51:09.283Z,985.25
2022-08-03T05:52:12.947Z,985.24
2022-08-03T05:53:10.265Z,985.23
2022-08-03T05:54:09.257Z,985.22
2022-08-03T05:55:09.253Z,985.22
2022-08-03T05:56:13.601Z,985.21
2022-08-03T05:57:10.265Z,985.21
2022-08-03T05:58:09.240Z,985.21
2022-08-03T05:59:35.898Z,985.20
2022-08-03T06:00:10.222Z,985.20
2022-08-03T06:01:09.238Z,985.20
2022-08-03T06:02:09.257Z,985.20
2022-08-03T06:03:09.204Z,985.20
2022-08-03T06:04:09.189Z,985.21
2022-08-03T06:05:09.185Z,985.21
2022-08-03T06:06:09.195Z,985.21
2022-08-03T06:07:09.192Z,985.21
2022-08-03T06:08:09.184Z,985.22
2022-08-03T06:09:09.154Z,985.22
2022-08-03T06:10:35.257Z,985.22
2022-08-03T06:11:10.143Z,985.22
2022-08-03T06:12:12.397Z,985.23
2022-08-03T06:13:10.190Z,985.22
2022-08-03T06:14:09.119Z,985.22
2022-08-03T06:15:11.318Z,985.22
2022-08-03T06:16:09.115Z,985.23
2022-08-03T06:17:09.109Z,985.22
2022-08-03T06:18:09.089Z,985.22
2022-08-03T06:19:09.103Z,985.22
2022-08-03T06:20:09.077Z,985.23
2022-08-03T06:21:14.316Z,985.22
2022-08-03T06:22:09.064Z,985.22
2022-08-03T06:23:15.937Z,985.22
2022-08-03T06:24:10.082Z,985.22
2022-08-03T06:25:12.671Z,985.22
2022-08-03T06:26:09.038Z,985.23
2022-08-03T06:27:09.039Z,985.23
2022-08-03T06:28:15.024Z,985.23
2022-08-03T06:29:10.054Z,985.24
2022-08-03T06:30:09.044Z,985.24
2022-08-03T06:31:09.005Z,985.25
2022-08-03T06:32:09.005Z,985.27
2022-08-03T06:33:09.010Z,985.27
2022-08-03T06:34:33.790Z,985.28
2022-08-03T06:35:10.016Z,985.29
2022-08-03T06:36:08.974Z,985.29
2022-08-03T06:37:08.978Z,985.29
2022-08-03T06:38:08.964Z,985.30
2022-08-03T06:39:08.962Z,985.31
2022-08-03T06:40:08.948Z,985.32
2022-08-03T06:41:08.972Z,985.33
2022-08-03T06:42:09.856Z,985.34
2022-08-03T06:43:12.553Z,985.35
2022-08-03T06:44:08.929Z,985.37
2022-08-03T06:45:08.917Z,985.38
2022-08-03T06:46:08.920Z,985.38
2022-08-03T06:47:08.926Z,985.38
2022-08-03T06:48:08.910Z,985.39
2022-08-03T06:49:08.956Z,985.38
2022-08-03T06:50:16.539Z,985.39
2022-08-03T06:51:09.890Z,985.40
2022-08-03T06:52:08.876Z,985.40
2022-08-03T06:53:08.863Z,985.40
2022-08-03T06:54:08.880Z,985.41
2022-08-03T06:55:08.867Z,985.42
2022-08-03T06:56:08.852Z,985.41
2022-08-03T06:57:08.847Z,985.41
2022-08-03T06:58:08.837Z,985.40
2022-08-03T06:59:08.826Z,985.40
2022-08-03T07:00:12.307Z,985.40
2022-08-03T07:01:08.855Z,985.40
2022-08-03T07:02:08.819Z,985.41
2022-08-03T07:03:08.820Z,985.41
2022-08-03T07:04:08.808Z,985.40
2022-08-03T07:05:08.810Z,985.40
2022-08-03T07:06:08.778Z,985.40
2022-08-03T07:07:08.790Z,985.39
2022-08-03T07:08:08.781Z,985.39
2022-08-03T07:09:08.767Z,985.38
2022-08-03T07:10:08.778Z,985.37
2022-08-03T07:11:08.762Z,985.37
2022-08-03T07:12:08.753Z,985.36
2022-08-03T07:13:08.752Z,985.34
2022-08-03T07:14:08.752Z,985.33
2022-08-03T07:15:08.774Z,985.33
2022-08-03T07:16:13.905Z,985.34
2022-08-03T07:17:11.689Z,985.34
2022-08-03T07:18:08.713Z,985.35
2022-08-03T07:19:08.708Z,985.35
2022-08-03T07:20:08.710Z,985.34
2022-08-03T07:21:08.773Z,985.34
2022-08-03T07:22:08.683Z,985.33
2022-08-03T07:23:08.692Z,985.34
2022-08-03T07:24:08.678Z,985.34
2022-08-03T07:25:08.656Z,985.34
2022-08-03T07:26:08.658Z,985.34
2022-08-03T07:27:08.675Z,985.34
2022-08-03T07:28:08.644Z,985.34
2022-08-03T07:29:14.875Z,985.33
2022-08-03T07:30:08.627Z,985.32
2022-08-03T07:31:08.617Z,985.32
2022-08-03T07:32:08.631Z,985.31
2022-08-03T07:33:08.625Z,985.32
2022-08-03T07:34:08.599Z,985.32
2022-08-03T07:35:08.768Z,985.32
2022-08-03T07:36:08.574Z,985.32
2022-08-03T07:37:08.622Z,985.32
2022-08-03T07:38:08.574Z,985.33
2022-08-03T07:39:17.566Z,985.32
2022-08-03T07:40:09.556Z,985.33
2022-08-03T07:41:08.550Z,985.34
2022-08-03T07:42:08.580Z,985.35
2022-08-03T07:43:08.563Z,985.35
2022-08-03T07:44:08.536Z,985.35
2022-08-03T07:45:08.519Z,985.36
2022-08-03T07:46:08.533Z,985.35
2022-08-03T07:47:09.147Z,985.34
2022-08-03T07:48:12.104Z,985.34
2022-08-03T07:49:08.563Z,985.33
2022-08-03T07:50:08.878Z,985.32
2022-08-03T07:51:08.499Z,985.32
2022-08-03T07:52:08.468Z,985.31
2022-08-03T07:53:08.467Z,985.30
2022-08-03T07:54:08.478Z,985.31
2022-08-03T07:55:08.458Z,985.31
2022-08-03T07:56:11.219Z,985.29
2022-08-03T07:57:08.468Z,985.28
2022-08-03T07:58:08.444Z,985.26
2022-08-03T07:59:08.454Z,985.27
2022-08-03T08:00:08.425Z,985.26
2022-08-03T08:01:08.446Z,985.26
2022-08-03T08:02:08.436Z,985.25
2022-08-03T08:03:08.411Z,985.24
2022-08-03T08:04:08.401Z,985.23
2022-08-03T08:05:08.421Z,985.23
2022-08-03T08:06:08.390Z,985.24
2022-08-03T08:07:08.381Z,985.24
2022-08-03T08:08:08.382Z,985.23
2022-08-03T08:09:08.370Z,985.23
2022-08-03T08:10:08.387Z,985.21
2022-08-03T08:11:08.360Z,985.20
2022-08-03T08:12:14.906Z,985.19
2022-08-03T08:13:09.338Z,985.18
2022-08-03T08:14:08.335Z,985.19
2022-08-03T08:15:08.326Z,985.19
2022-08-03T08:16:08.349Z,985.18
2022-08-03T08:17:08.345Z,985.18
2022-08-03T08:18:08.301Z,985.18
2022-08-03T08:19:08.314Z,985.17
2022-08-03T08:20:08.285Z,985.17
2022-08-03T08:21:08.709Z,985.17
2022-08-03T08:22:08.274Z,985.16
2022-08-03T08:23:19.989Z,985.17
2022-08-03T08:24:11.441Z,985.15
2022-08-03T08:25:09.250Z,985.15
2022-08-03T08:26:08.237Z,985.15
2022-08-03T08:27:08.247Z,985.14
2022-08-03T08:28:30.890Z,985.13
2022-08-03T08:29:09.246Z,985.13
2022-08-03T08:30:11.548Z,985.12
2022-08-03T08:31:08.244Z,985.11
2022-08-03T08:32:08.237Z,985.10
2022-08-03T08:33:08.726Z,985.09
2022-08-03T08:34:09.248Z,985.07
2022-08-03T08:35:08.203Z,985.07
2022-08-03T08:36:11.988Z,985.08
2022-08-03T08:37:09.186Z,985.10
2022-08-03T08:38:08.170Z,985.09
2022-08-03T08:39:08.167Z,985.09
2022-08-03T08:40:08.158Z,985.08
2022-08-03T08:41:08.137Z,985.09
2022-08-03T08:42:08.165Z,985.08
2022-08-03T08:43:08.143Z,985.06
2022-08-03T08:44:08.140Z,985.07
2022-08-03T08:45:08.117Z,985.08
2022-08-03T08:46:08.129Z,985.06
2022-08-03T08:47:08.107Z,985.06
2022-08-03T08:48:08.550Z,985.06
2022-08-03T08:49:08.132Z,985.08
2022-08-03T08:50:14.850Z,985.09
2022-08-03T08:51:09.077Z,985.10
2022-08-03T08:52:25.356Z,985.09
2022-08-03T08:53:09.811Z,985.08
2022-08-03T08:54:09.071Z,985.09
2022-08-03T08:55:08.049Z,985.08
2022-08-03T08:56:08.075Z,985.07
2022-08-03T08:57:21.258Z,985.05
2022-08-03T08:58:09.028Z,985.04
2022-08-03T08:59:08.029Z,985.02
2022-08-03T09:00:08.022Z,985.04
2022-08-03T09:01:08.087Z,985.02
2022-08-03T09:02:08.007Z,984.99
2022-08-03T09:03:08.003Z,985.01
2022-08-03T09:04:08.000Z,984.98
2022-08-03T09:05:08.010Z,984.97
2022-08-03T09:06:07.999Z,984.95
2022-08-03T09:07:19.661Z,984.96
2022-08-03T09:08:08.954Z,984.95
2022-08-03T09:09:07.996Z,984.94
2022-08-03T09:10:12.712Z,984.96
2022-08-03T09:11:08.948Z,984.93
2022-08-03T09:12:35.290Z,984.93
2022-08-03T09:13:08.936Z,984.92
2022-08-03T09:14:07.935Z,984.92
2022-08-03T09:15:17.033Z,984.92
2022-08-03T09:16:08.916Z,984.94
2022-08-03T09:17:07.901Z,984.93
2022-08-03T09:18:07.895Z,984.93
2022-08-03T09:19:07.892Z,984.97
2022-08-03T09:20:07.889Z,984.95
2022-08-03T09:21:29.652Z,984.92
2022-08-03T09:22:08.907Z,984.89
2022-08-03T09:23:24.939Z,984.90
2022-08-03T09:24:16.519Z,984.90
2022-08-03T09:25:23.780Z,984.90
2022-08-03T09:26:09.155Z,984.88
2022-08-03T09:27:07.853Z,984.86
2022-08-03T09:28:07.842Z,984.86
2022-08-03T09:29:13.153Z,984.89
2022-08-03T09:30:19.000Z,984.87
2022-08-03T09:31:07.822Z,984.85
2022-08-03T09:32:07.844Z,984.82
2022-08-03T09:33:08.373Z,984.83
2022-08-03T09:34:07.793Z,984.83
2022-08-03T09:35:09.481Z,984.81
2022-08-03T09:36:07.776Z,984.80
2022-08-03T09:37:07.775Z,984.79
2022-08-03T09:38:12.637Z,984.81
2022-08-03T09:39:08.763Z,984.80
2022-08-03T09:40:08.384Z,984.84
2022-08-03T09:41:07.765Z,984.83
2022-08-03T09:42:07.743Z,984.85
2022-08-03T09:43:07.745Z,984.85
2022-08-03T09:44:07.724Z,984.85
2022-08-03T09:45:07.754Z,984.84
2022-08-03T09:46:07.791Z,984.80
2022-08-03T09:47:07.720Z,984.82
2022-08-03T09:48:07.709Z,984.82
2022-08-03T09:49:07.763Z,984.82
2022-08-03T09:50:07.690Z,984.83
2022-08-03T09:51:14.207Z,984.82
2022-08-03T09:52:31.765Z,984.81
2022-08-03T09:53:08.681Z,984.77
2022-08-03T09:54:13.534Z,984.77
2022-08-03T09:55:23.394Z,984.76
2022-08-03T09:56:36.006Z,984.74
2022-08-03T09:57:08.662Z,984.75
2022-08-03T09:58:07.642Z,984.72
2022-08-03T09:59:07.667Z,984.74
2022-08-03T10:00:08.468Z,984.72
2022-08-03T10:01:07.687Z,984.71
2022-08-03T10:02:08.636Z,984.70
2022-08-03T10:03:07.617Z,984.69
2022-08-03T10:04:07.598Z,984.67
2022-08-03T10:05:07.607Z,984.68
2022-08-03T10:06:07.598Z,984.66
2022-08-03T10:07:07.596Z,984.69
2022-08-03T10:08:07.613Z,984.69
2022-08-03T10:09:07.565Z,984.68
2022-08-03T10:10:29.925Z,984.65
2022-08-03T10:11:07.555Z,984.66
2022-08-03T10:12:07.544Z,984.64
2022-08-03T10:13:07.545Z,984.64
2022-08-03T10:14:07.551Z,984.63
2022-08-03T10:15:07.537Z,984.62
2022-08-03T10:16:21.971Z,984.62
2022-08-03T10:17:08.520Z,984.60
2022-08-03T10:18:07.503Z,984.60
2022-08-03T10:19:07.528Z,984.57
2022-08-03T10:20:07.490Z,984.57
2022-08-03T10:21:07.520Z,984.57
2022-08-03T10:22:07.486Z,984.60
2022-08-03T10:23:07.472Z,984.62
2022-08-03T10:24:07.456Z,984.56
2022-08-03T10:25:07.497Z,984.57
2022-08-03T10:26:07.447Z,984.55
2022-08-03T10:27:07.486Z,984.50
2022-08-03T10:28:07.435Z,984.53
2022-08-03T10:29:07.441Z,984.53
2022-08-03T10:30:07.432Z,984.53
2022-08-03T10:31:07.457Z,984.53
2022-08-03T10:32:07.416Z,984.53
2022-08-03T10:33:15.308Z,984.52
2022-08-03T10:34:08.431Z,984.52
2022-08-03T10:35:19.114Z,984.51
2022-08-03T10:36:08.433Z,984.50
2022-08-03T10:37:07.405Z,984.53
2022-08-03T10:38:07.402Z,984.48
2022-08-03T10:39:16.110Z,984.45
2022-08-03T10:40:07.368Z,984.46
2022-08-03T10:41:07.351Z,984.44
2022-08-03T10:42:13.506Z,984.40
2022-08-03T10:43:07.369Z,984.41
2022-08-03T10:44:07.332Z,984.40
2022-08-03T10:45:07.326Z,984.34
2022-08-03T10:46:07.322Z,984.36
2022-08-03T10:47:07.333Z,984.38
2022-08-03T10:48:07.307Z,984.35
2022-08-03T10:49:07.390Z,984.34
2022-08-03T10:50:07.287Z,984.31
2022-08-03T10:51:07.283Z,984.31
2022-08-03T10:52:13.382Z,984.33
2022-08-03T10:53:07.272Z,984.28
2022-08-03T10:54:07.274Z,984.25
2022-08-03T10:55:07.824Z,984.22
2022-08-03T10:56:07.243Z,984.24
2022-08-03T10:57:14.490Z,984.21
2022-08-03T10:58:11.258Z,984.21
2022-08-03T10:59:08.768Z,984.24
2022-08-03T11:00:07.447Z,984.23
2022-08-03T11:01:07.269Z,984.26
2022-08-03T11:02:07.235Z,984.25
2022-08-03T11:03:07.270Z,984.24
2022-08-03T11:04:11.046Z,984.22
2022-08-03T11:05:07.197Z,984.21
2022-08-03T11:06:07.195Z,984.21
2022-08-03T11:07:07.190Z,984.20
2022-08-03T11:08:07.182Z,984.20
2022-08-03T11:09:07.185Z,984.20
2022-08-03T11:10:10.497Z,984.22
2022-08-03T11:11:07.193Z,984.13
2022-08-03T11:12:07.149Z,984.20
2022-08-03T11:13:07.177Z,984.19
2022-08-03T11:14:07.139Z,984.19
2022-08-03T11:15:07.284Z,984.14
2022-08-03T11:16:10.915Z,984.18
2022-08-03T11:17:07.131Z,984.15
2022-08-03T11:18:11.536Z,984.11
2022-08-03T11:19:07.129Z,984.14
2022-08-03T11:20:07.097Z,984.15
2022-08-03T11:21:07.101Z,984.15
2022-08-03T11:22:07.083Z,984.11
2022-08-03T11:23:07.081Z,984.09
2022-08-03T11:24:07.249Z,984.08
2022-08-03T11:25:07.093Z,984.08
2022-08-03T11:26:07.086Z,984.02
2022-08-03T11:27:07.051Z,984.02
2022-08-03T11:28:07.069Z,984.00
2022-08-03T11:29:07.037Z,983.99
2022-08-03T11:30:07.020Z,984.00
2022-08-03T11:31:07.019Z,983.99
2022-08-03T11:32:07.042Z,984.03
2022-08-03T11:33:07.014Z,984.02
2022-08-03T11:34:07.006Z,984.02
2022-08-03T11:35:07.013Z,984.02
2022-08-03T11:36:06.989Z,984.01
2022-08-03T11:37:06.988Z,984.00
2022-08-03T11:38:06.986Z,984.00
2022-08-03T11:39:06.969Z,983.97
2022-08-03T11:40:06.962Z,983.96
2022-08-03T11:41:06.960Z,983.95
2022-08-03T11:42:06.977Z,983.99
2022-08-03T11:43:06.948Z,984.00
2022-08-03T11:44:06.948Z,983.96
2022-08-03T11:45:06.941Z,983.94
2022-08-03T11:46:06.931Z,983.94
2022-08-03T11:47:06.914Z,983.92
2022-08-03T11:48:06.934Z,983.92
2022-08-03T11:49:10.287Z,983.92
2022-08-03T11:50:06.893Z,983.90
2022-08-03T11:51:06.891Z,983.90
2022-08-03T11:52:06.884Z,983.93
2022-08-03T11:53:06.896Z,983.93
2022-08-03T11:54:06.865Z,983.93
2022-08-03T11:55:06.875Z,983.92
2022-08-03T11:56:12.868Z,983.94
2022-08-03T11:57:07.861Z,983.94
2022-08-03T11:59:00.775Z,983.94
2022-08-03T11:59:20.423Z,983.95
2022-08-03T12:00:07.918Z,983.97
2022-08-03T12:01:06.835Z,983.92
2022-08-03T12:02:06.808Z,983.91
2022-08-03T12:03:06.891Z,983.92
2022-08-03T12:04:06.800Z,983.91
2022-08-03T12:05:06.817Z,983.90
2022-08-03T12:06:06.785Z,983.89
2022-08-03T12:07:06.789Z,983.87
2022-08-03T12:08:07.196Z,983.86
2022-08-03T12:09:06.769Z,983.86
2022-08-03T12:10:06.754Z,983.85
2022-08-03T12:11:06.835Z,983.83
2022-08-03T12:12:06.749Z,983.86
2022-08-03T12:14:45.531Z,983.84
2022-08-03T12:14:50.112Z,983.84
2022-08-03T12:15:07.729Z,983.83
2022-08-03T12:16:06.731Z,983.86
2022-08-03T12:17:06.719Z,983.84
2022-08-03T12:18:06.705Z,983.85
2022-08-03T12:19:06.764Z,983.86
2022-08-03T12:20:06.726Z,983.84
2022-08-03T12:21:06.688Z,983.83
2022-08-03T12:22:06.671Z,983.78
2022-08-03T12:23:06.687Z,983.76
2022-08-03T12:24:06.657Z,983.77
2022-08-03T12:25:06.657Z,983.79
2022-08-03T12:26:06.659Z,983.81
2022-08-03T12:27:06.639Z,983.79
2022-08-03T12:28:06.635Z,983.79